Time;durP1;ratioP1;P1;durP2;ratioP2;P2;SDS_P1;SDS_P2;PMS_P1;PMS_P2;Temp;Humidity;BMP_temperature;BMP_pressure;BME280_temperature;BME280_humidity;BME280_pressure;Samples;Min_cycle;Max_cycle;Signal;HPM_P1;HPM_P2
2023/05/23 00:01:30;;;;;;;4.22;3.83;;;21.40;60.30;;;;;;5074309;28;20265;-69
2023/05/23 00:03:56;;;;;;;4.10;3.70;;;21.40;60.30;;;;;;5074126;28;20218;-70
2023/05/23 00:06:22;;;;;;;3.72;3.42;;;21.40;60.30;;;;;;5074319;28;20626;-70
2023/05/23 00:08:48;;;;;;;3.95;3.65;;;21.40;60.30;;;;;;5074657;28;20178;-70
2023/05/23 00:11:13;;;;;;;3.72;3.42;;;21.40;60.30;;;;;;5073466;28;20174;-68
2023/05/23 00:13:40;;;;;;;4.22;3.92;;;21.40;60.40;;;;;;5074702;28;20217;-68
2023/05/23 00:16:08;;;;;;;4.18;3.78;;;21.40;60.30;;;;;;5074116;28;20629;-68
2023/05/23 00:18:37;;;;;;;3.63;3.15;;;21.40;60.30;;;;;;5073686;28;20193;-68
2023/05/23 00:21:02;;;;;;;3.63;3.33;;;21.40;60.30;;;;;;5074147;28;20732;-68
2023/05/23 00:23:28;;;;;;;4.05;3.75;;;21.40;60.40;;;;;;5073386;28;20308;-68
2023/05/23 00:25:54;;;;;;;3.78;3.47;;;21.40;60.30;;;;;;5073369;28;20248;-68
2023/05/23 00:28:20;;;;;;;3.83;3.53;;;21.40;60.40;;;;;;5073955;28;20521;-68
2023/05/23 00:30:47;;;;;;;3.58;3.28;;;21.40;60.30;;;;;;5074237;28;20174;-69
2023/05/23 00:33:14;;;;;;;4.63;4.22;;;21.30;60.30;;;;;;5073096;28;20182;-69
2023/05/23 00:35:40;;;;;;;4.10;3.80;;;21.40;60.40;;;;;;5073569;28;20684;-68
2023/05/23 00:38:06;;;;;;;4.20;3.80;;;21.30;60.30;;;;;;5073684;28;20202;-68
2023/05/23 00:40:33;;;;;;;4.18;3.88;;;21.40;60.40;;;;;;5073581;28;20183;-68
2023/05/23 00:42:58;;;;;;;3.83;3.53;;;21.40;60.40;;;;;;5074126;28;20253;-68
2023/05/23 00:45:24;;;;;;;3.70;3.40;;;21.30;60.30;;;;;;5073481;28;20201;-69
2023/05/23 00:47:51;;;;;;;3.67;3.38;;;21.30;60.30;;;;;;5073186;28;20186;-70
2023/05/23 00:50:16;;;;;;;4.18;3.50;;;21.30;60.40;;;;;;5073652;28;20170;-69
2023/05/23 00:52:43;;;;;;;3.97;3.67;;;21.30;60.40;;;;;;5073748;28;20713;-69
2023/05/23 00:55:09;;;;;;;3.78;3.47;;;21.30;60.30;;;;;;5071757;28;20181;-68
2023/05/23 00:57:38;;;;;;;3.65;3.35;;;21.30;60.30;;;;;;5073912;28;20254;-68
2023/05/23 01:00:07;;;;;;;4.05;3.67;;;21.30;60.30;;;;;;5073000;28;20178;-68
2023/05/23 01:02:35;;;;;;;3.70;3.40;;;21.30;60.40;;;;;;5073459;28;20568;-69
2023/05/23 01:05:01;;;;;;;3.58;3.15;;;21.30;60.40;;;;;;5072307;28;20205;-69
2023/05/23 01:07:26;;;;;;;3.60;3.30;;;21.30;60.40;;;;;;5072771;28;20209;-69
2023/05/23 01:09:52;;;;;;;3.92;3.60;;;21.30;60.40;;;;;;5073738;28;20253;-69
2023/05/23 01:12:38;;;;;;;4.03;3.35;;;21.30;60.30;;;;;;5072152;28;20264;-68
2023/05/23 01:15:12;;;;;;;3.63;3.33;;;21.30;60.40;;;;;;5071491;28;20178;-67
2023/05/23 01:17:51;;;;;;;4.30;3.40;;;21.30;60.40;;;;;;5073171;28;20182;-68
2023/05/23 01:20:27;;;;;;;3.85;3.55;;;21.30;60.40;;;;;;5072076;28;20253;-68
2023/05/23 01:22:59;;;;;;;4.10;3.70;;;21.20;60.30;;;;;;5071500;28;20212;-67
2023/05/23 01:26:02;;;;;;;4.00;3.25;;;21.20;60.40;;;;;;5072693;28;20632;-67
2023/05/23 01:28:30;;;;;;;4.15;3.75;;;21.30;60.40;;;;;;5072252;28;20228;-67
2023/05/23 01:30:57;;;;;;;3.97;3.65;;;21.30;60.40;;;;;;5073261;28;20182;-68
2023/05/23 01:33:22;;;;;;;3.65;3.22;;;21.20;60.30;;;;;;5071547;28;20174;-68
2023/05/23 01:35:48;;;;;;;4.00;3.65;;;21.30;60.40;;;;;;5071064;28;20241;-68
2023/05/23 01:38:13;;;;;;;3.72;3.40;;;21.20;60.30;;;;;;5071478;28;20312;-67
2023/05/23 01:40:39;;;;;;;3.50;3.20;;;21.20;60.40;;;;;;5073018;28;20640;-68
2023/05/23 01:43:04;;;;;;;4.05;3.58;;;21.20;60.30;;;;;;5072146;28;20214;-68
2023/05/23 01:45:30;;;;;;;3.95;3.58;;;21.20;60.30;;;;;;5072005;28;20515;-68
2023/05/23 01:47:55;;;;;;;3.55;3.25;;;21.20;60.40;;;;;;5071024;28;20572;-69
2023/05/23 01:50:22;;;;;;;3.97;3.60;;;21.20;60.30;;;;;;5070812;28;20209;-68
2023/05/23 01:52:47;;;;;;;3.90;3.60;;;21.20;60.40;;;;;;5071716;28;20197;-68
2023/05/23 01:55:14;;;;;;;4.13;3.72;;;21.20;60.40;;;;;;5071367;28;20170;-67
2023/05/23 01:57:40;;;;;;;3.30;3.08;;;21.20;60.40;;;;;;5071127;28;20185;-67
2023/05/23 02:00:06;;;;;;;3.17;2.95;;;21.20;60.40;;;;;;5072349;28;20171;-68
2023/05/23 02:02:32;;;;;;;4.13;3.67;;;21.20;60.40;;;;;;5072823;28;20206;-68
2023/05/23 02:04:58;;;;;;;3.83;3.53;;;21.20;60.40;;;;;;5072033;28;20223;-68
2023/05/23 02:07:23;;;;;;;4.30;3.90;;;21.20;60.40;;;;;;5072600;28;20175;-68
2023/05/23 02:09:49;;;;;;;4.68;3.55;;;21.20;60.40;;;;;;5072828;28;20655;-68
2023/05/23 02:12:15;;;;;;;3.78;3.38;;;21.20;60.50;;;;;;5071706;28;20182;-67
2023/05/23 02:14:41;;;;;;;3.67;3.33;;;21.20;60.40;;;;;;5072796;28;20253;-67
2023/05/23 02:17:08;;;;;;;3.83;3.53;;;21.20;60.40;;;;;;5072310;28;20189;-67
2023/05/23 02:19:34;;;;;;;3.63;3.33;;;21.20;60.40;;;;;;5072003;28;20236;-67
2023/05/23 02:22:00;;;;;;;4.25;3.60;;;21.10;60.40;;;;;;5072507;28;20633;-67
2023/05/23 02:24:25;;;;;;;3.50;3.20;;;21.20;60.40;;;;;;5072063;28;20601;-68
2023/05/23 02:26:51;;;;;;;3.40;3.10;;;21.10;60.30;;;;;;5072352;28;20197;-67
2023/05/23 02:29:17;;;;;;;3.45;3.22;;;21.20;60.40;;;;;;5072460;28;20178;-68
2023/05/23 02:31:43;;;;;;;4.13;3.83;;;21.20;60.40;;;;;;5071731;28;20526;-68
2023/05/23 02:34:08;;;;;;;3.70;3.40;;;21.20;60.40;;;;;;5072228;28;20179;-68
2023/05/23 02:36:35;;;;;;;3.60;3.30;;;21.20;60.40;;;;;;5072243;28;20226;-68
2023/05/23 02:39:01;;;;;;;3.35;3.10;;;21.10;60.30;;;;;;5071613;28;20183;-67
2023/05/23 02:41:27;;;;;;;3.83;3.42;;;21.20;60.40;;;;;;5072233;28;20251;-68
2023/05/23 02:43:52;;;;;;;3.55;3.00;;;21.10;60.30;;;;;;5072496;28;20319;-68
2023/05/23 02:46:18;;;;;;;3.85;3.55;;;21.20;60.40;;;;;;5071406;28;20659;-69
2023/05/23 02:48:44;;;;;;;3.22;2.92;;;21.10;60.40;;;;;;5072376;28;20183;-69
2023/05/23 02:51:09;;;;;;;4.22;3.53;;;21.10;60.30;;;;;;5072119;28;20170;-69
2023/05/23 02:53:35;;;;;;;3.72;3.42;;;21.10;60.30;;;;;;5071640;28;20691;-68
2023/05/23 02:56:00;;;;;;;3.20;3.00;;;21.10;60.30;;;;;;5072521;28;20167;-68
2023/05/23 02:58:26;;;;;;;4.03;3.63;;;21.10;60.30;;;;;;5073053;28;20649;-68
2023/05/23 03:00:51;;;;;;;3.63;3.28;;;21.10;60.30;;;;;;5075305;28;20220;-68
2023/05/23 03:03:17;;;;;;;3.60;3.30;;;21.20;60.40;;;;;;5075462;28;20736;-69
2023/05/23 03:05:42;;;;;;;4.07;3.78;;;21.10;60.30;;;;;;5075799;28;20274;-69
2023/05/23 03:08:08;;;;;;;4.00;3.70;;;21.10;60.40;;;;;;5074693;28;20274;-69
2023/05/23 03:10:33;;;;;;;3.10;2.85;;;21.10;60.30;;;;;;5076007;28;20170;-68
2023/05/23 03:12:59;;;;;;;3.50;3.20;;;21.10;60.30;;;;;;5076060;28;20312;-68
2023/05/23 03:15:25;;;;;;;3.83;3.42;;;21.10;60.30;;;;;;5074837;28;20257;-67
2023/05/23 03:17:50;;;;;;;3.97;3.67;;;21.10;60.30;;;;;;5076132;28;20585;-67
2023/05/23 03:20:16;;;;;;;4.10;3.70;;;21.10;60.30;;;;;;5075303;28;20689;-67
2023/05/23 03:22:44;;;;;;;3.90;3.60;;;21.10;60.30;;;;;;5074662;28;20206;-67
2023/05/23 03:25:09;;;;;;;4.00;3.47;;;21.10;60.30;;;;;;5075159;28;20629;-68
2023/05/23 03:27:35;;;;;;;3.63;3.33;;;21.20;60.40;;;;;;5075375;28;20196;-68
2023/05/23 03:30:02;;;;;;;3.50;3.20;;;21.10;60.40;;;;;;5074656;28;20264;-68
2023/05/23 03:32:28;;;;;;;4.13;3.72;;;21.10;60.30;;;;;;5074999;28;20178;-68
2023/05/23 03:34:53;;;;;;;4.07;3.53;;;21.10;60.40;;;;;;5074434;28;20225;-67
2023/05/23 03:37:19;;;;;;;3.70;3.38;;;21.10;60.30;;;;;;5074898;28;20170;-68
2023/05/23 03:39:45;;;;;;;3.78;3.47;;;21.10;60.30;;;;;;5075334;28;20178;-67
2023/05/23 03:42:10;;;;;;;3.95;3.45;;;21.10;60.30;;;;;;5074220;28;20253;-69
2023/05/23 03:44:36;;;;;;;3.60;3.30;;;21.10;60.40;;;;;;5075335;28;20277;-68
2023/05/23 03:47:01;;;;;;;3.88;3.53;;;21.10;60.30;;;;;;5075214;28;20254;-68
2023/05/23 03:49:27;;;;;;;4.07;3.67;;;21.00;60.30;;;;;;5074069;28;20261;-68
2023/05/23 03:51:52;;;;;;;4.22;3.60;;;21.00;60.30;;;;;;5075119;28;20173;-68
2023/05/23 03:54:18;;;;;;;4.10;3.58;;;21.00;60.30;;;;;;5074934;28;20178;-68
2023/05/23 03:56:44;;;;;;;3.80;3.50;;;21.00;60.30;;;;;;5074279;28;20229;-67
2023/05/23 03:59:09;;;;;;;3.83;3.53;;;21.00;60.30;;;;;;5074274;28;20232;-67
2023/05/23 04:01:35;;;;;;;3.60;3.30;;;21.00;60.30;;;;;;5074385;28;20174;-68
2023/05/23 04:04:00;;;;;;;3.17;2.97;;;21.00;60.30;;;;;;5073781;28;20208;-68
2023/05/23 04:06:28;;;;;;;3.67;3.38;;;21.00;60.30;;;;;;5074417;28;20163;-68
2023/05/23 04:08:54;;;;;;;3.42;3.13;;;21.00;60.30;;;;;;5073700;28;20179;-68
2023/05/23 04:11:21;;;;;;;3.40;3.00;;;21.00;60.30;;;;;;5073135;28;20216;-67
2023/05/23 04:13:46;;;;;;;3.47;3.17;;;21.00;60.30;;;;;;5074706;28;20311;-67
2023/05/23 04:16:12;;;;;;;4.15;3.70;;;21.00;60.20;;;;;;5074219;28;20643;-67
2023/05/23 04:18:37;;;;;;;3.88;3.58;;;21.00;60.20;;;;;;5073860;28;20208;-67
2023/05/23 04:21:03;;;;;;;4.13;3.78;;;21.00;60.20;;;;;;5074378;28;20261;-67
2023/05/23 04:23:29;;;;;;;4.72;3.40;;;21.00;60.20;;;;;;5073959;28;20560;-67
2023/05/23 04:25:56;;;;;;;3.78;3.47;;;21.00;60.20;;;;;;5073875;28;20178;-67
2023/05/23 04:28:22;;;;;;;4.25;3.75;;;21.00;60.20;;;;;;5074082;28;20175;-68
2023/05/23 04:30:48;;;;;;;4.72;3.60;;;21.00;60.20;;;;;;5074183;28;20181;-68
2023/05/23 04:33:14;;;;;;;4.63;3.55;;;21.00;60.20;;;;;;5073344;28;20179;-68
2023/05/23 04:35:39;;;;;;;4.40;4.00;;;21.00;60.20;;;;;;5074156;28;20226;-70
2023/05/23 04:38:05;;;;;;;4.13;3.47;;;21.00;60.20;;;;;;5073540;28;20231;-67
2023/05/23 04:40:31;;;;;;;3.92;3.50;;;21.00;60.30;;;;;;5074164;28;20179;-67
2023/05/23 04:42:56;;;;;;;3.63;3.33;;;21.00;60.20;;;;;;5073915;28;20288;-68
2023/05/23 04:45:22;;;;;;;4.40;3.80;;;20.90;60.10;;;;;;5073036;28;20177;-69
2023/05/23 04:47:47;;;;;;;4.95;3.92;;;21.00;60.20;;;;;;5073828;28;20186;-69
2023/05/23 04:50:13;;;;;;;4.13;3.60;;;21.00;60.20;;;;;;5073507;28;20194;-69
2023/05/23 04:52:39;;;;;;;4.15;3.40;;;20.90;60.10;;;;;;5073333;28;20178;-68
2023/05/23 04:55:05;;;;;;;4.40;3.50;;;21.00;60.10;;;;;;5073650;28;20185;-67
2023/05/23 04:57:31;;;;;;;3.90;3.60;;;21.00;60.10;;;;;;5072811;28;20254;-67
2023/05/23 04:59:56;;;;;;;4.05;3.65;;;21.00;60.20;;;;;;5073113;28;20514;-67
2023/05/23 05:02:22;;;;;;;4.10;3.70;;;21.00;60.10;;;;;;5073535;28;20192;-68
2023/05/23 05:04:47;;;;;;;4.20;3.80;;;21.00;60.20;;;;;;5073515;28;20178;-68
2023/05/23 05:07:14;;;;;;;3.88;3.58;;;21.00;60.20;;;;;;5072822;28;20194;-68
2023/05/23 05:09:40;;;;;;;3.67;3.33;;;21.00;60.10;;;;;;5073548;28;20308;-68
2023/05/23 05:12:06;;;;;;;3.80;3.40;;;21.00;60.10;;;;;;5073273;28;20265;-67
2023/05/23 05:14:31;;;;;;;3.60;3.30;;;20.90;60.10;;;;;;5072707;28;20282;-67
2023/05/23 05:16:57;;;;;;;4.32;3.92;;;20.90;60.10;;;;;;5073249;28;20643;-67
2023/05/23 05:19:23;;;;;;;3.67;3.38;;;20.90;60.10;;;;;;5072973;28;20178;-67
2023/05/23 05:21:48;;;;;;;3.80;3.50;;;20.90;60.10;;;;;;5072934;28;20177;-67
2023/05/23 05:24:15;;;;;;;4.32;3.17;;;20.90;60.10;;;;;;5072939;28;20214;-67
2023/05/23 05:26:40;;;;;;;4.43;3.85;;;20.90;60.10;;;;;;5073401;28;20220;-67
2023/05/23 05:29:06;;;;;;;4.10;3.70;;;20.90;60.10;;;;;;5072261;28;20179;-67
2023/05/23 05:31:32;;;;;;;5.25;3.70;;;20.90;60.10;;;;;;5073217;28;20672;-68
2023/05/23 05:33:57;;;;;;;4.18;3.78;;;20.90;60.10;;;;;;5072998;28;20623;-68
2023/05/23 05:36:23;;;;;;;4.68;3.50;;;20.90;60.10;;;;;;5071923;28;20226;-67
2023/05/23 05:38:48;;;;;;;3.80;3.50;;;20.90;60.10;;;;;;5073019;28;20210;-68
2023/05/23 05:41:14;;;;;;;5.15;4.03;;;20.90;60.10;;;;;;5072989;28;20255;-67
2023/05/23 05:43:39;;;;;;;4.45;3.88;;;20.90;60.10;;;;;;5072195;28;20206;-68
2023/05/23 05:46:05;;;;;;;4.55;3.85;;;20.90;60.90;;;;;;5072654;28;20238;-68
2023/05/23 05:48:30;;;;;;;5.30;4.13;;;20.90;60.10;;;;;;5072354;28;20167;-69
2023/05/23 05:50:56;;;;;;;5.55;3.85;;;20.90;60.10;;;;;;5072815;28;20228;-68
2023/05/23 05:53:21;;;;;;;4.20;3.88;;;20.90;60.10;;;;;;5072840;28;20257;-67
2023/05/23 05:55:47;;;;;;;4.32;3.40;;;20.90;60.10;;;;;;5072156;28;20923;-67
2023/05/23 05:58:13;;;;;;;3.97;3.67;;;20.80;60.00;;;;;;5072550;28;20644;-67
2023/05/23 06:00:41;;;;;;;4.28;3.88;;;20.80;60.10;;;;;;5072858;28;20174;-68
2023/05/23 06:03:07;;;;;;;5.90;3.58;;;20.80;60.10;;;;;;5071499;28;20218;-69
2023/05/23 06:05:33;;;;;;;4.28;3.72;;;20.80;60.10;;;;;;5072881;28;20185;-68
2023/05/23 06:07:58;;;;;;;4.18;3.78;;;20.80;60.10;;;;;;5072911;28;20174;-69
2023/05/23 06:10:24;;;;;;;5.18;3.88;;;20.80;60.10;;;;;;5071717;28;20174;-68
2023/05/23 06:12:50;;;;;;;4.53;4.13;;;20.80;60.10;;;;;;5072679;28;20174;-67
2023/05/23 06:15:15;;;;;;;5.07;3.55;;;20.90;60.20;;;;;;5072475;28;20257;-67
2023/05/23 06:17:41;;;;;;;4.57;4.05;;;20.80;60.10;;;;;;5071890;28;20246;-67
2023/05/23 06:20:07;;;;;;;4.22;3.55;;;20.80;60.10;;;;;;5072400;28;20198;-67
2023/05/23 06:22:33;;;;;;;4.93;3.70;;;20.80;60.00;;;;;;5072613;28;20251;-67
2023/05/23 06:24:58;;;;;;;3.88;3.47;;;20.80;60.00;;;;;;5072038;28;20178;-67
2023/05/23 06:27:24;;;;;;;4.25;3.65;;;20.80;60.00;;;;;;5072259;28;20174;-67
2023/05/23 06:29:49;;;;;;;4.65;4.15;;;20.80;60.30;;;;;;5073203;28;20257;-67
2023/05/23 06:32:15;;;;;;;4.30;3.90;;;20.90;60.10;;;;;;5071264;28;20258;-75
2023/05/23 06:34:40;;;;;;;6.82;3.95;;;20.90;60.10;;;;;;5075649;28;20178;-74
2023/05/23 06:37:06;;;;;;;5.07;3.78;;;20.80;60.50;;;;;;5076401;28;20215;-72
2023/05/23 06:39:31;;;;;;;7.20;3.85;;;20.90;60.40;;;;;;5075680;28;20211;-70
2023/05/23 06:41:57;;;;;;;5.90;4.03;;;20.90;60.20;;;;;;5076433;28;20175;-71
2023/05/23 06:44:22;;;;;;;4.82;3.95;;;20.90;60.10;;;;;;5076053;28;20549;-72
2023/05/23 06:46:48;;;;;;;5.22;4.28;;;20.90;60.00;;;;;;5075278;28;20282;-75
2023/05/23 06:49:14;;;;;;;4.55;3.88;;;20.90;60.00;;;;;;5076048;28;20179;-73
2023/05/23 06:51:39;;;;;;;5.10;3.90;;;20.90;59.90;;;;;;5076322;28;20167;-72
2023/05/23 06:54:05;;;;;;;5.55;3.88;;;20.90;60.00;;;;;;5075080;28;20178;-72
2023/05/23 06:56:30;;;;;;;5.25;3.83;;;20.80;59.90;;;;;;5075326;28;20232;-71
2023/05/23 06:58:56;;;;;;;4.28;3.67;;;20.80;59.90;;;;;;5075032;28;20174;-71
2023/05/23 07:01:21;;;;;;;4.53;3.42;;;20.80;59.80;;;;;;5075590;28;20216;-71
2023/05/23 07:03:47;;;;;;;5.25;3.63;;;20.90;59.80;;;;;;5075910;28;20214;-71
2023/05/23 07:06:16;;;;;;;4.45;3.60;;;20.90;59.60;;;;;;5074950;28;20170;-72
2023/05/23 07:08:42;;;;;;;4.13;3.67;;;20.90;59.50;;;;;;5074875;28;20218;-71
2023/05/23 07:11:07;;;;;;;5.13;3.58;;;20.90;60.10;;;;;;5075366;28;20693;-71
2023/05/23 07:13:33;;;;;;;4.07;3.60;;;20.90;59.40;;;;;;5075014;28;20174;-70
2023/05/23 07:15:58;;;;;;;6.72;4.10;;;20.90;59.30;;;;;;5075569;28;20167;-71
2023/05/23 07:18:24;;;;;;;6.45;3.60;;;21.00;59.10;;;;;;5075528;28;20179;-70
2023/05/23 07:20:50;;;;;;;4.00;3.33;;;21.10;59.10;;;;;;5074804;28;20170;-71
2023/05/23 07:23:15;;;;;;;5.05;3.90;;;21.00;59.00;;;;;;5075163;28;20211;-71
2023/05/23 07:25:41;;;;;;;5.30;3.88;;;21.10;58.90;;;;;;5075706;28;20166;-71
2023/05/23 07:28:07;;;;;;;3.90;3.60;;;21.20;58.90;;;;;;5074503;28;20652;-72
2023/05/23 07:30:33;;;;;;;6.78;3.78;;;21.10;58.80;;;;;;5075360;28;20186;-74
2023/05/23 07:32:58;;;;;;;3.85;3.38;;;21.20;58.80;;;;;;5075488;28;20183;-72
2023/05/23 07:35:25;;;;;;;5.10;3.75;;;21.20;58.80;;;;;;5074332;28;20233;-71
2023/05/23 07:37:53;;;;;;;4.28;3.60;;;21.10;58.80;;;;;;5075436;28;20181;-70
2023/05/23 07:40:19;;;;;;;3.67;3.28;;;21.10;58.80;;;;;;5074963;28;20572;-71
2023/05/23 07:42:45;;;;;;;5.45;3.70;;;21.10;58.90;;;;;;5074423;28;20210;-72
2023/05/23 07:45:10;;;;;;;4.10;3.55;;;21.10;58.80;;;;;;5073542;28;20167;-72
2023/05/23 07:47:36;;;;;;;4.13;3.17;;;21.10;58.80;;;;;;5075629;28;20179;-73
2023/05/23 07:50:02;;;;;;;4.10;3.63;;;21.10;58.80;;;;;;5074548;28;20622;-72
2023/05/23 07:52:30;;;;;;;4.75;3.65;;;21.20;58.70;;;;;;5074890;28;20201;-72
2023/05/23 07:54:56;;;;;;;5.00;4.38;;;21.20;58.60;;;;;;5075023;28;20178;-72
2023/05/23 07:57:23;;;;;;;4.82;3.65;;;21.20;58.50;;;;;;5073991;28;20228;-71
2023/05/23 07:59:49;;;;;;;4.38;3.60;;;21.30;58.50;;;;;;5074574;28;20179;-71
2023/05/23 08:02:14;;;;;;;4.80;3.58;;;21.30;58.40;;;;;;5073810;28;20185;-71
2023/05/23 08:04:40;;;;;;;4.32;3.28;;;21.30;58.40;;;;;;5074918;28;20182;-71
2023/05/23 08:07:07;;;;;;;4.57;3.60;;;21.30;58.40;;;;;;5074468;28;20175;-72
2023/05/23 08:09:32;;;;;;;3.65;3.03;;;21.30;58.50;;;;;;5073900;28;20652;-71
2023/05/23 08:11:58;;;;;;;5.00;3.67;;;21.30;58.50;;;;;;5074662;28;20187;-72
2023/05/23 08:14:23;;;;;;;4.45;3.63;;;21.20;58.50;;;;;;5074081;28;20175;-71
2023/05/23 08:16:49;;;;;;;3.65;3.17;;;21.20;58.50;;;;;;5073975;28;20186;-71
2023/05/23 08:19:15;;;;;;;4.78;3.60;;;21.20;58.50;;;;;;5074369;28;20571;-71
2023/05/23 08:21:41;;;;;;;5.63;3.90;;;21.20;58.60;;;;;;5074633;28;20166;-71
2023/05/23 08:24:11;;;;;;;4.53;3.50;;;21.10;58.60;;;;;;5073342;28;20297;-71
2023/05/23 08:26:37;;;;;;;5.03;3.45;;;21.10;58.60;;;;;;5074218;28;20174;-70
2023/05/23 08:29:03;;;;;;;3.88;3.35;;;21.10;58.60;;;;;;5074195;28;20219;-71
2023/05/23 08:31:29;;;;;;;5.28;3.58;;;21.20;58.40;;;;;;5073576;28;20275;-71
2023/05/23 08:33:55;;;;;;;4.00;3.10;;;21.30;58.20;;;;;;5074339;28;20175;-71
2023/05/23 08:36:20;;;;;;;5.20;3.75;;;21.30;58.10;;;;;;5073658;28;20263;-71
2023/05/23 08:38:46;;;;;;;3.47;3.15;;;21.30;58.20;;;;;;5073410;28;20538;-70
2023/05/23 08:41:17;;;;;;;3.65;3.10;;;21.30;58.20;;;;;;5073802;28;20271;-70
2023/05/23 08:43:43;;;;;;;4.75;2.88;;;21.20;58.20;;;;;;5074084;28;20210;-71
2023/05/23 08:46:08;;;;;;;4.00;3.50;;;21.20;58.30;;;;;;5072784;28;20188;-74
2023/05/23 08:48:34;;;;;;;5.20;3.60;;;21.20;58.30;;;;;;5072673;28;20269;-75
2023/05/23 08:51:00;;;;;;;3.85;3.00;;;21.20;58.20;;;;;;5073900;28;20254;-73
2023/05/23 08:53:26;;;;;;;4.78;3.40;;;21.30;58.20;;;;;;5071590;28;20182;-72
2023/05/23 08:55:53;;;;;;;5.25;3.55;;;21.30;58.00;;;;;;5072156;28;20175;-71
2023/05/23 08:58:19;;;;;;;4.95;3.28;;;21.30;57.90;;;;;;5071662;28;20242;-72
2023/05/23 09:00:45;;;;;;;3.55;2.88;;;21.30;57.80;;;;;;5072137;28;20640;-72
2023/05/23 09:03:11;;;;;;;4.90;3.22;;;21.20;57.80;;;;;;5073575;28;20220;-72
2023/05/23 09:05:37;;;;;;;4.70;2.95;;;21.30;57.70;;;;;;5072985;28;20170;-72
2023/05/23 09:08:02;;;;;;;5.53;2.92;;;21.30;57.60;;;;;;5073649;28;20178;-72
2023/05/23 09:10:28;;;;;;;6.32;3.05;;;21.40;57.60;;;;;;5073324;28;20170;-72
2023/05/23 09:12:54;;;;;;;4.65;3.00;;;21.40;57.50;;;;;;5072643;28;20175;-72
2023/05/23 09:15:21;;;;;;;3.88;2.90;;;21.40;57.50;;;;;;5073067;28;20173;-72
2023/05/23 09:17:46;;;;;;;6.22;3.28;;;21.40;57.40;;;;;;5073309;28;20189;-71
2023/05/23 09:20:14;;;;;;;6.15;3.25;;;21.40;57.20;;;;;;5072531;28;20170;-70
2023/05/23 09:22:39;;;;;;;5.40;3.22;;;21.40;57.30;;;;;;5073128;28;20214;-71
2023/05/23 09:25:05;;;;;;;4.20;3.10;;;21.40;57.30;;;;;;5081372;28;20181;-71
2023/05/23 09:27:31;;;;;;;4.82;2.83;;;21.40;57.30;;;;;;5076721;28;20204;-70
2023/05/23 09:29:56;;;;;;;4.88;2.50;;;21.40;57.00;;;;;;5093587;28;20589;-73
2023/05/23 09:32:22;;;;;;;4.68;2.92;;;21.40;57.00;;;;;;5082972;28;20181;-72
2023/05/23 09:34:58;;;;;;;4.95;3.03;;;21.40;57.00;;;;;;5072308;28;20214;-72
2023/05/23 09:37:34;;;;;;;5.03;2.95;;;21.40;57.10;;;;;;5073010;28;20220;-71
2023/05/23 09:40:01;;;;;;;4.05;2.80;;;21.40;56.90;;;;;;5075811;28;20260;-73
2023/05/23 09:42:33;;;;;;;4.05;2.72;;;21.50;57.00;;;;;;5080668;28;20201;-73
2023/05/23 09:44:59;;;;;;;5.75;3.00;;;21.50;56.80;;;;;;5072960;28;20176;-74
2023/05/23 09:47:25;;;;;;;5.55;3.00;;;21.50;56.80;;;;;;5072893;28;20178;-74
2023/05/23 09:49:51;;;;;;;4.43;2.78;;;21.60;56.50;;;;;;5054678;28;20187;-73
2023/05/23 09:52:18;;;;;;;5.45;2.70;;;21.60;56.50;;;;;;5052728;28;20265;-72
2023/05/23 09:54:45;;;;;;;6.15;2.95;;;21.70;56.50;;;;;;5052208;28;20175;-73
2023/05/23 09:57:11;;;;;;;4.72;2.60;;;21.60;56.40;;;;;;5052679;28;20236;-73
2023/05/23 09:59:41;;;;;;;7.50;2.85;;;21.70;56.40;;;;;;5051233;28;20167;-72
2023/05/23 10:02:09;;;;;;;6.93;3.03;;;21.70;56.50;;;;;;5051703;28;20191;-73
2023/05/23 10:04:35;;;;;;;7.18;3.13;;;21.60;56.50;;;;;;5052560;28;20592;-72
2023/05/23 10:07:03;;;;;;;6.40;2.60;;;21.60;56.60;;;;;;5051438;28;20198;-74
2023/05/23 10:09:31;;;;;;;3.65;2.70;;;21.70;56.60;;;;;;5050026;28;20183;-71
2023/05/23 10:12:35;;;;;;;4.18;2.70;;;21.80;56.60;;;;;;5051329;28;20246;-71
2023/05/23 10:15:03;;;;;;;5.25;2.58;;;21.80;56.40;;;;;;5044228;28;20224;-71
2023/05/23 10:17:32;;;;;;;5.68;2.72;;;21.90;56.30;;;;;;5051296;28;20183;-70
2023/05/23 10:20:01;;;;;;;6.35;2.85;;;21.90;56.20;;;;;;5052516;28;20653;-71
2023/05/23 10:22:26;;;;;;;5.78;3.20;;;21.90;56.20;;;;;;5051021;28;20205;-70
2023/05/23 10:24:52;;;;;;;7.30;2.53;;;22.00;56.30;;;;;;5051768;28;20590;-71
2023/05/23 10:27:18;;;;;;;5.63;2.75;;;22.00;56.30;;;;;;5052276;28;20171;-71
2023/05/23 10:29:44;;;;;;;7.40;2.38;;;22.00;56.20;;;;;;5052109;28;20175;-72
2023/05/23 10:32:09;;;;;;;5.55;2.90;;;22.10;56.20;;;;;;5052106;28;20179;-67
2023/05/23 10:35:08;;;;;;;6.43;2.63;;;22.10;56.10;;;;;;5051047;28;20167;-67
2023/05/23 10:38:18;;;;;;;6.10;2.40;;;22.20;56.10;;;;;;5050746;28;20187;-67
2023/05/23 10:41:02;;;;;;;4.10;2.33;;;22.00;56.90;;;;;;5030227;28;20238;-69
2023/05/23 10:44:01;;;;;;;3.72;2.47;;;22.00;56.50;;;;;;5030035;28;20214;-69
2023/05/23 10:46:57;;;;;;;4.10;2.63;;;21.90;56.50;;;;;;5028852;28;20191;-70
2023/05/23 10:49:44;;;;;;;3.55;2.42;;;22.00;56.50;;;;;;5052209;28;20182;-69
2023/05/23 10:52:15;;;;;;;3.88;2.15;;;22.00;56.50;;;;;;5051199;28;20186;-68
2023/05/23 10:54:49;;;;;;;5.82;2.92;;;22.10;56.40;;;;;;5052105;28;20656;-66
2023/05/23 10:57:22;;;;;;;3.95;2.35;;;22.20;56.20;;;;;;5052000;28;20205;-68
2023/05/23 10:59:50;;;;;;;4.70;2.75;;;22.20;56.20;;;;;;5050159;28;20179;-68
2023/05/23 11:02:25;;;;;;;12.43;3.25;;;22.20;56.20;;;;;;5050550;28;20179;-68
2023/05/23 11:05:12;;;;;;;4.93;2.70;;;22.20;56.20;;;;;;5051936;28;20533;-68
2023/05/23 11:07:38;;;;;;;4.40;2.17;;;22.20;56.20;;;;;;5052180;28;20232;-68
2023/05/23 11:10:07;;;;;;;5.45;2.55;;;22.30;56.10;;;;;;5050692;28;20175;-67
2023/05/23 11:12:43;;;;;;;4.18;2.85;;;22.30;56.10;;;;;;5051444;28;20190;-67
2023/05/23 11:15:19;;;;;;;4.47;2.53;;;22.40;56.00;;;;;;5051651;28;20206;-68
2023/05/23 11:17:56;;;;;;;5.50;2.65;;;22.50;55.90;;;;;;5051736;28;20179;-68
2023/05/23 11:20:25;;;;;;;4.35;2.58;;;22.40;55.80;;;;;;5053388;28;20194;-68
2023/05/23 11:22:57;;;;;;;5.30;2.45;;;22.30;56.00;;;;;;5055545;28;20264;-69
2023/05/23 11:25:41;;;;;;;5.40;2.75;;;22.30;56.20;;;;;;5055016;28;20171;-69
2023/05/23 11:28:08;;;;;;;5.28;2.35;;;22.30;56.40;;;;;;5054406;28;20232;-70
2023/05/23 11:30:35;;;;;;;3.35;2.33;;;22.30;56.90;;;;;;5055270;28;20541;-69
2023/05/23 11:33:02;;;;;;;6.03;2.65;;;22.40;56.10;;;;;;5055375;28;20175;-69
2023/05/23 11:35:27;;;;;;;4.78;2.60;;;22.30;56.20;;;;;;5053152;28;20230;-68
2023/05/23 11:37:55;;;;;;;5.30;2.83;;;22.40;56.30;;;;;;5054082;28;20511;-68
2023/05/23 11:40:28;;;;;;;7.07;2.53;;;22.30;56.30;;;;;;5053140;28;20684;-67
2023/05/23 11:42:54;;;;;;;6.03;2.95;;;22.30;56.30;;;;;;5054977;28;20654;-68
2023/05/23 11:45:20;;;;;;;3.38;2.38;;;22.30;56.40;;;;;;5054531;28;20175;-69
2023/05/23 11:47:46;;;;;;;4.40;2.45;;;22.30;56.30;;;;;;5054706;28;20214;-65
2023/05/23 11:50:11;;;;;;;4.95;2.38;;;22.40;56.30;;;;;;5055067;28;20206;-72
2023/05/23 11:52:37;;;;;;;5.07;2.53;;;22.40;56.00;;;;;;5074535;28;20210;-72
2023/05/23 11:55:03;;;;;;;4.03;2.50;;;22.50;55.80;;;;;;5072387;28;20178;-72
2023/05/23 11:57:29;;;;;;;5.97;2.10;;;22.50;55.80;;;;;;5074160;28;20174;-71
2023/05/23 11:59:54;;;;;;;6.38;2.78;;;22.30;56.60;;;;;;5074644;28;20175;-73
2023/05/23 12:02:20;;;;;;;5.53;2.70;;;22.30;56.10;;;;;;5073674;28;20182;-73
2023/05/23 12:04:46;;;;;;;4.60;2.58;;;22.30;56.20;;;;;;5074762;28;20564;-75
2023/05/23 12:07:11;;;;;;;4.20;2.50;;;22.30;56.00;;;;;;5073246;28;20528;-74
2023/05/23 12:09:43;;;;;;;7.72;2.88;;;22.30;56.00;;;;;;5073996;28;20540;-72
2023/05/23 12:12:09;;;;;;;3.47;1.95;;;22.30;55.90;;;;;;5074326;28;20193;-71
2023/05/23 12:14:35;;;;;;;3.45;2.17;;;22.30;55.90;;;;;;5074808;28;20613;-72
2023/05/23 12:17:00;;;;;;;4.65;2.47;;;22.60;56.10;;;;;;5072534;28;20208;-71
2023/05/23 12:19:26;;;;;;;4.32;1.92;;;22.20;56.10;;;;;;5074271;28;20251;-71
2023/05/23 12:21:52;;;;;;;3.40;2.30;;;22.20;56.00;;;;;;5074422;28;20179;-72
2023/05/23 12:24:21;;;;;;;3.47;2.05;;;22.20;56.10;;;;;;5073162;28;20210;-71
2023/05/23 12:26:51;;;;;;;4.53;2.38;;;22.20;56.00;;;;;;5074605;28;20179;-72
2023/05/23 12:29:33;;;;;;;4.75;2.60;;;22.20;56.10;;;;;;5074088;28;20632;-72
2023/05/23 12:31:59;;;;;;;4.32;2.42;;;22.20;56.00;;;;;;5073734;28;20653;-74
2023/05/23 12:34:25;;;;;;;4.07;2.50;;;22.30;55.90;;;;;;5073958;28;20274;-69
2023/05/23 12:36:54;;;;;;;5.13;2.42;;;22.30;55.70;;;;;;5073351;28;20311;-72
2023/05/23 12:39:27;;;;;;;2.83;1.73;;;22.30;55.70;;;;;;5073873;28;20175;-71
2023/05/23 12:41:55;;;;;;;4.68;2.28;;;22.20;55.90;;;;;;5074083;28;20170;-72
2023/05/23 12:44:20;;;;;;;6.25;2.53;;;22.20;56.00;;;;;;5072788;28;20707;-74
2023/05/23 12:46:47;;;;;;;3.97;1.98;;;22.20;56.00;;;;;;5073654;28;20179;-74
2023/05/23 12:49:13;;;;;;;5.18;2.53;;;22.10;56.00;;;;;;5073806;28;20308;-74